Terminal Aerodrome Forecast
Issued by NWS

Current Version | Previous Version | Graphics & Text | Print | Product List | Glossary On
Versions: 1 2 3 4 5 6 7 8 9 10 11 12 13 14 15 16 17 18 19 20 21 22 23 24 25 26 27 28 29 30 31 32 33
000
FTUS41 KRNK 252340
TAFLWB
TAF
KLWB 252340Z 2600/2624 00000KT P6SM OVC120
     FM260500 07003KT 4SM -SN BR OVC015
     FM260700 06004KT 2SM -SN BR OVC009
     FM261100 06003KT 5SM -SN OVC012
     FM261400 08004KT P6SM OVC020=

USA.gov is the U.S. government's official web portal to all federal, state and local government web resources and services.